sensor_id;sensor_type;location;lat;lon;timestamp;temperature;humidity
8914;DHT22;4492;48.736;9.092;2023-05-16T00:01:55;10.70;99.90
8914;DHT22;4492;48.736;9.092;2023-05-16T00:04:21;10.70;99.90
8914;DHT22;4492;48.736;9.092;2023-05-16T00:06:47;10.80;99.90
8914;DHT22;4492;48.736;9.092;2023-05-16T00:09:13;10.70;99.90
8914;DHT22;4492;48.736;9.092;2023-05-16T00:11:39;10.70;99.90
8914;DHT22;4492;48.736;9.092;2023-05-16T00:14:04;10.80;99.90
8914;DHT22;4492;48.736;9.092;2023-05-16T00:16:30;10.80;99.90
8914;DHT22;4492;48.736;9.092;2023-05-16T00:18:56;10.80;99.90
8914;DHT22;4492;48.736;9.092;2023-05-16T00:21:25;10.80;99.90
8914;DHT22;4492;48.736;9.092;2023-05-16T00:23:51;10.80;99.90
8914;DHT22;4492;48.736;9.092;2023-05-16T00:26:17;10.80;99.90
8914;DHT22;4492;48.736;9.092;2023-05-16T00:28:42;10.80;99.90
8914;DHT22;4492;48.736;9.092;2023-05-16T00:31:08;10.80;99.90
8914;DHT22;4492;48.736;9.092;2023-05-16T00:33:34;10.80;99.90
8914;DHT22;4492;48.736;9.092;2023-05-16T00:35:59;10.80;99.90
8914;DHT22;4492;48.736;9.092;2023-05-16T00:38:25;10.80;99.90
8914;DHT22;4492;48.736;9.092;2023-05-16T00:40:50;10.80;99.90
8914;DHT22;4492;48.736;9.092;2023-05-16T00:43:16;10.80;99.90
8914;DHT22;4492;48.736;9.092;2023-05-16T00:45:41;10.80;99.90
8914;DHT22;4492;48.736;9.092;2023-05-16T00:48:07;10.70;99.90
8914;DHT22;4492;48.736;9.092;2023-05-16T00:50:35;10.70;99.90
8914;DHT22;4492;48.736;9.092;2023-05-16T00:53:01;10.60;99.90
8914;DHT22;4492;48.736;9.092;2023-05-16T00:55:26;10.60;99.90
8914;DHT22;4492;48.736;9.092;2023-05-16T00:57:52;10.60;99.90
8914;DHT22;4492;48.736;9.092;2023-05-16T01:00:18;10.50;99.90
8914;DHT22;4492;48.736;9.092;2023-05-16T01:02:44;10.50;99.90
8914;DHT22;4492;48.736;9.092;2023-05-16T01:05:10;10.50;99.90
8914;DHT22;4492;48.736;9.092;2023-05-16T01:07:36;10.40;99.90
8914;DHT22;4492;48.736;9.092;2023-05-16T01:10:03;10.40;99.90
8914;DHT22;4492;48.736;9.092;2023-05-16T01:12:42;10.30;99.90
8914;DHT22;4492;48.736;9.092;2023-05-16T01:28:48;10.00;99.90
8914;DHT22;4492;48.736;9.092;2023-05-16T01:31:14;10.00;99.90
8914;DHT22;4492;48.736;9.092;2023-05-16T01:33:40;10.00;99.90
8914;DHT22;4492;48.736;9.092;2023-05-16T01:36:24;10.00;99.90
8914;DHT22;4492;48.736;9.092;2023-05-16T01:39:19;10.00;99.90
8914;DHT22;4492;48.736;9.092;2023-05-16T01:42:06;9.90;99.90
8914;DHT22;4492;48.736;9.092;2023-05-16T01:44:59;9.90;99.90
8914;DHT22;4492;48.736;9.092;2023-05-16T01:47:28;9.90;99.90
8914;DHT22;4492;48.736;9.092;2023-05-16T01:55:02;9.70;99.90
8914;DHT22;4492;48.736;9.092;2023-05-16T01:57:29;9.60;99.90
8914;DHT22;4492;48.736;9.092;2023-05-16T01:59:56;9.60;99.90
8914;DHT22;4492;48.736;9.092;2023-05-16T02:02:22;9.50;99.90
8914;DHT22;4492;48.736;9.092;2023-05-16T02:04:47;9.60;99.90
8914;DHT22;4492;48.736;9.092;2023-05-16T02:07:13;9.60;99.90
8914;DHT22;4492;48.736;9.092;2023-05-16T02:09:39;9.50;99.90
8914;DHT22;4492;48.736;9.092;2023-05-16T02:12:05;9.60;99.90
8914;DHT22;4492;48.736;9.092;2023-05-16T02:14:30;9.60;99.90
8914;DHT22;4492;48.736;9.092;2023-05-16T02:16:56;9.60;99.90
8914;DHT22;4492;48.736;9.092;2023-05-16T02:19:22;9.70;99.90
8914;DHT22;4492;48.736;9.092;2023-05-16T02:21:47;9.60;99.90
8914;DHT22;4492;48.736;9.092;2023-05-16T02:24:13;9.70;99.90
8914;DHT22;4492;48.736;9.092;2023-05-16T02:26:38;9.70;99.90
8914;DHT22;4492;48.736;9.092;2023-05-16T02:29:04;9.70;99.90
8914;DHT22;4492;48.736;9.092;2023-05-16T02:31:31;9.70;99.90
8914;DHT22;4492;48.736;9.092;2023-05-16T02:33:58;9.70;99.90
8914;DHT22;4492;48.736;9.092;2023-05-16T02:36:24;9.70;99.90
8914;DHT22;4492;48.736;9.092;2023-05-16T02:38:50;9.70;99.90
8914;DHT22;4492;48.736;9.092;2023-05-16T02:41:15;9.70;99.90
8914;DHT22;4492;48.736;9.092;2023-05-16T02:43:41;9.70;99.90
8914;DHT22;4492;48.736;9.092;2023-05-16T02:46:25;9.70;99.90
8914;DHT22;4492;48.736;9.092;2023-05-16T02:48:52;9.70;99.90
8914;DHT22;4492;48.736;9.092;2023-05-16T02:51:24;9.70;99.90
8914;DHT22;4492;48.736;9.092;2023-05-16T02:53:50;9.70;99.90
8914;DHT22;4492;48.736;9.092;2023-05-16T02:56:16;9.60;99.90
8914;DHT22;4492;48.736;9.092;2023-05-16T02:58:43;9.60;99.90
8914;DHT22;4492;48.736;9.092;2023-05-16T03:01:08;9.50;99.90
8914;DHT22;4492;48.736;9.092;2023-05-16T03:03:35;9.50;99.90
8914;DHT22;4492;48.736;9.092;2023-05-16T03:06:01;9.40;99.90
8914;DHT22;4492;48.736;9.092;2023-05-16T03:08:27;9.30;99.90
8914;DHT22;4492;48.736;9.092;2023-05-16T03:10:53;9.30;99.90
8914;DHT22;4492;48.736;9.092;2023-05-16T03:13:18;9.30;99.90
8914;DHT22;4492;48.736;9.092;2023-05-16T03:15:44;9.30;99.90
8914;DHT22;4492;48.736;9.092;2023-05-16T03:18:10;9.30;99.90
8914;DHT22;4492;48.736;9.092;2023-05-16T03:20:36;9.30;99.90
8914;DHT22;4492;48.736;9.092;2023-05-16T03:23:02;9.30;99.90
8914;DHT22;4492;48.736;9.092;2023-05-16T03:25:28;9.30;99.90
8914;DHT22;4492;48.736;9.092;2023-05-16T03:27:53;9.30;99.90
8914;DHT22;4492;48.736;9.092;2023-05-16T03:30:19;9.20;99.90
8914;DHT22;4492;48.736;9.092;2023-05-16T03:32:45;9.20;99.90
8914;DHT22;4492;48.736;9.092;2023-05-16T03:35:10;9.10;99.90
8914;DHT22;4492;48.736;9.092;2023-05-16T03:37:37;9.10;99.90
8914;DHT22;4492;48.736;9.092;2023-05-16T03:40:03;9.10;99.90
8914;DHT22;4492;48.736;9.092;2023-05-16T03:42:32;9.10;99.90
8914;DHT22;4492;48.736;9.092;2023-05-16T03:44:57;9.10;99.90
8914;DHT22;4492;48.736;9.092;2023-05-16T03:47:23;9.20;99.90
8914;DHT22;4492;48.736;9.092;2023-05-16T03:49:49;9.20;99.90
8914;DHT22;4492;48.736;9.092;2023-05-16T03:52:14;9.20;99.90
8914;DHT22;4492;48.736;9.092;2023-05-16T03:54:40;9.20;99.90
8914;DHT22;4492;48.736;9.092;2023-05-16T03:57:05;9.20;99.90
8914;DHT22;4492;48.736;9.092;2023-05-16T03:59:31;9.20;99.90
8914;DHT22;4492;48.736;9.092;2023-05-16T04:01:58;9.20;99.90
8914;DHT22;4492;48.736;9.092;2023-05-16T04:04:24;9.20;99.90
8914;DHT22;4492;48.736;9.092;2023-05-16T04:06:50;9.20;99.90
8914;DHT22;4492;48.736;9.092;2023-05-16T04:09:15;9.20;99.90
8914;DHT22;4492;48.736;9.092;2023-05-16T04:11:41;9.20;99.90
8914;DHT22;4492;48.736;9.092;2023-05-16T04:14:07;9.20;99.90
8914;DHT22;4492;48.736;9.092;2023-05-16T04:16:33;9.20;99.90
8914;DHT22;4492;48.736;9.092;2023-05-16T04:18:58;9.30;99.90
8914;DHT22;4492;48.736;9.092;2023-05-16T04:21:24;9.30;99.90
8914;DHT22;4492;48.736;9.092;2023-05-16T04:23:49;9.40;99.90
8914;DHT22;4492;48.736;9.092;2023-05-16T04:26:15;9.40;99.90
8914;DHT22;4492;48.736;9.092;2023-05-16T04:28:40;9.50;99.90
8914;DHT22;4492;48.736;9.092;2023-05-16T04:31:06;9.60;99.90
8914;DHT22;4492;48.736;9.092;2023-05-16T04:33:32;9.60;99.90
8914;DHT22;4492;48.736;9.092;2023-05-16T04:35:58;9.70;99.90
8914;DHT22;4492;48.736;9.092;2023-05-16T04:38:25;9.70;99.90
8914;DHT22;4492;48.736;9.092;2023-05-16T04:40:50;9.70;99.90
8914;DHT22;4492;48.736;9.092;2023-05-16T04:43:17;9.70;99.90
8914;DHT22;4492;48.736;9.092;2023-05-16T04:45:43;9.70;99.90
8914;DHT22;4492;48.736;9.092;2023-05-16T04:48:09;9.70;99.90
8914;DHT22;4492;48.736;9.092;2023-05-16T04:50:34;9.80;99.90
8914;DHT22;4492;48.736;9.092;2023-05-16T04:53:00;9.80;99.90
8914;DHT22;4492;48.736;9.092;2023-05-16T04:55:26;9.80;99.90
8914;DHT22;4492;48.736;9.092;2023-05-16T04:57:51;9.80;99.90
8914;DHT22;4492;48.736;9.092;2023-05-16T05:00:17;9.80;99.90
8914;DHT22;4492;48.736;9.092;2023-05-16T05:02:42;9.80;99.90
8914;DHT22;4492;48.736;9.092;2023-05-16T05:05:08;9.90;99.90
8914;DHT22;4492;48.736;9.092;2023-05-16T05:07:34;9.90;99.90
8914;DHT22;4492;48.736;9.092;2023-05-16T05:10:00;9.90;99.90
8914;DHT22;4492;48.736;9.092;2023-05-16T05:12:25;10.00;99.90
8914;DHT22;4492;48.736;9.092;2023-05-16T05:14:52;10.00;99.90
8914;DHT22;4492;48.736;9.092;2023-05-16T05:17:19;10.00;99.90
8914;DHT22;4492;48.736;9.092;2023-05-16T05:19:45;10.10;99.90
8914;DHT22;4492;48.736;9.092;2023-05-16T05:22:11;10.10;99.90
8914;DHT22;4492;48.736;9.092;2023-05-16T05:24:36;10.10;99.90
8914;DHT22;4492;48.736;9.092;2023-05-16T05:27:02;10.10;99.90
8914;DHT22;4492;48.736;9.092;2023-05-16T05:29:27;10.20;99.90
8914;DHT22;4492;48.736;9.092;2023-05-16T05:31:53;10.20;99.90
8914;DHT22;4492;48.736;9.092;2023-05-16T05:34:18;10.30;99.90
8914;DHT22;4492;48.736;9.092;2023-05-16T05:36:44;10.30;99.90
8914;DHT22;4492;48.736;9.092;2023-05-16T05:39:09;10.30;99.90
8914;DHT22;4492;48.736;9.092;2023-05-16T05:41:36;10.30;99.90
8914;DHT22;4492;48.736;9.092;2023-05-16T05:44:02;10.40;99.90
8914;DHT22;4492;48.736;9.092;2023-05-16T05:46:27;10.40;99.90
8914;DHT22;4492;48.736;9.092;2023-05-16T05:48:53;10.40;99.90
8914;DHT22;4492;48.736;9.092;2023-05-16T05:51:18;10.30;99.90
8914;DHT22;4492;48.736;9.092;2023-05-16T05:53:44;10.40;99.90
8914;DHT22;4492;48.736;9.092;2023-05-16T05:56:09;10.40;99.90
8914;DHT22;4492;48.736;9.092;2023-05-16T05:58:35;10.40;99.90
8914;DHT22;4492;48.736;9.092;2023-05-16T06:01:01;10.40;99.90
8914;DHT22;4492;48.736;9.092;2023-05-16T06:03:26;10.40;99.90
8914;DHT22;4492;48.736;9.092;2023-05-16T06:05:52;10.40;99.90
8914;DHT22;4492;48.736;9.092;2023-05-16T06:08:17;10.40;99.90
8914;DHT22;4492;48.736;9.092;2023-05-16T06:10:43;10.40;99.90
8914;DHT22;4492;48.736;9.092;2023-05-16T06:13:09;10.40;99.90
8914;DHT22;4492;48.736;9.092;2023-05-16T06:15:34;10.50;99.90
8914;DHT22;4492;48.736;9.092;2023-05-16T06:18:00;10.50;99.90
8914;DHT22;4492;48.736;9.092;2023-05-16T06:20:25;10.50;99.90
8914;DHT22;4492;48.736;9.092;2023-05-16T06:22:51;10.50;99.90
8914;DHT22;4492;48.736;9.092;2023-05-16T06:25:16;10.60;99.90
8914;DHT22;4492;48.736;9.092;2023-05-16T06:27:42;10.80;99.90
8914;DHT22;4492;48.736;9.092;2023-05-16T06:30:08;10.90;99.90
8914;DHT22;4492;48.736;9.092;2023-05-16T06:32:33;11.10;99.90
8914;DHT22;4492;48.736;9.092;2023-05-16T06:34:59;11.10;99.90
8914;DHT22;4492;48.736;9.092;2023-05-16T06:37:24;11.20;99.90
8914;DHT22;4492;48.736;9.092;2023-05-16T06:39:50;11.30;99.90
8914;DHT22;4492;48.736;9.092;2023-05-16T06:42:16;11.40;99.90
8914;DHT22;4492;48.736;9.092;2023-05-16T06:44:41;11.40;99.90
8914;DHT22;4492;48.736;9.092;2023-05-16T06:47:07;11.30;99.90
8914;DHT22;4492;48.736;9.092;2023-05-16T06:49:33;11.20;99.90
8914;DHT22;4492;48.736;9.092;2023-05-16T06:51:58;11.10;99.90
8914;DHT22;4492;48.736;9.092;2023-05-16T06:54:24;11.00;99.90
8914;DHT22;4492;48.736;9.092;2023-05-16T06:56:49;11.00;99.90
8914;DHT22;4492;48.736;9.092;2023-05-16T06:59:15;10.90;99.90
8914;DHT22;4492;48.736;9.092;2023-05-16T07:01:41;11.00;99.90
8914;DHT22;4492;48.736;9.092;2023-05-16T07:04:06;11.00;99.90
8914;DHT22;4492;48.736;9.092;2023-05-16T07:06:32;10.90;99.90
8914;DHT22;4492;48.736;9.092;2023-05-16T07:08:58;10.90;99.90
8914;DHT22;4492;48.736;9.092;2023-05-16T07:11:23;10.90;99.90
8914;DHT22;4492;48.736;9.092;2023-05-16T07:13:49;10.90;99.90
8914;DHT22;4492;48.736;9.092;2023-05-16T07:16:14;10.90;99.90
8914;DHT22;4492;48.736;9.092;2023-05-16T07:18:40;10.80;99.90
8914;DHT22;4492;48.736;9.092;2023-05-16T07:21:05;10.80;99.90
8914;DHT22;4492;48.736;9.092;2023-05-16T07:23:31;10.80;99.90
8914;DHT22;4492;48.736;9.092;2023-05-16T07:25:57;10.80;99.90
8914;DHT22;4492;48.736;9.092;2023-05-16T07:28:22;10.90;99.90
8914;DHT22;4492;48.736;9.092;2023-05-16T07:30:48;10.90;99.90
8914;DHT22;4492;48.736;9.092;2023-05-16T07:33:14;10.80;99.90
8914;DHT22;4492;48.736;9.092;2023-05-16T07:35:39;10.80;99.90
8914;DHT22;4492;48.736;9.092;2023-05-16T07:38:05;10.80;99.90
8914;DHT22;4492;48.736;9.092;2023-05-16T07:40:30;10.80;99.90
8914;DHT22;4492;48.736;9.092;2023-05-16T07:42:56;10.80;99.90
8914;DHT22;4492;48.736;9.092;2023-05-16T07:45:21;10.90;99.90
8914;DHT22;4492;48.736;9.092;2023-05-16T07:47:47;11.00;99.90
8914;DHT22;4492;48.736;9.092;2023-05-16T07:50:12;11.10;99.90
8914;DHT22;4492;48.736;9.092;2023-05-16T07:52:38;11.10;99.90
8914;DHT22;4492;48.736;9.092;2023-05-16T07:55:04;11.10;99.90
8914;DHT22;4492;48.736;9.092;2023-05-16T07:57:29;11.00;99.90
8914;DHT22;4492;48.736;9.092;2023-05-16T07:59:55;11.00;99.90
8914;DHT22;4492;48.736;9.092;2023-05-16T08:02:22;11.10;99.90
8914;DHT22;4492;48.736;9.092;2023-05-16T08:04:48;11.10;99.90
8914;DHT22;4492;48.736;9.092;2023-05-16T08:07:14;11.10;99.90
8914;DHT22;4492;48.736;9.092;2023-05-16T08:09:40;11.10;99.90
8914;DHT22;4492;48.736;9.092;2023-05-16T08:12:06;11.10;99.90
8914;DHT22;4492;48.736;9.092;2023-05-16T08:14:31;11.10;99.90
8914;DHT22;4492;48.736;9.092;2023-05-16T08:16:58;11.10;99.90
8914;DHT22;4492;48.736;9.092;2023-05-16T08:19:24;11.00;99.90
8914;DHT22;4492;48.736;9.092;2023-05-16T08:21:50;11.00;99.90
8914;DHT22;4492;48.736;9.092;2023-05-16T08:24:15;11.00;99.90
8914;DHT22;4492;48.736;9.092;2023-05-16T08:26:41;10.90;99.90
8914;DHT22;4492;48.736;9.092;2023-05-16T08:29:06;10.80;99.90
8914;DHT22;4492;48.736;9.092;2023-05-16T08:31:32;10.70;99.90
8914;DHT22;4492;48.736;9.092;2023-05-16T08:33:58;10.80;99.90
8914;DHT22;4492;48.736;9.092;2023-05-16T08:36:23;10.70;99.90
8914;DHT22;4492;48.736;9.092;2023-05-16T08:38:50;10.60;99.90
8914;DHT22;4492;48.736;9.092;2023-05-16T08:41:15;10.60;99.90
8914;DHT22;4492;48.736;9.092;2023-05-16T08:43:41;10.50;99.90
8914;DHT22;4492;48.736;9.092;2023-05-16T08:46:07;10.50;99.90
8914;DHT22;4492;48.736;9.092;2023-05-16T08:48:35;10.50;99.90
8914;DHT22;4492;48.736;9.092;2023-05-16T08:51:02;10.40;99.90
8914;DHT22;4492;48.736;9.092;2023-05-16T08:53:31;10.40;99.90
8914;DHT22;4492;48.736;9.092;2023-05-16T08:56:01;10.40;99.90
8914;DHT22;4492;48.736;9.092;2023-05-16T08:58:27;10.40;99.90
8914;DHT22;4492;48.736;9.092;2023-05-16T09:00:55;10.40;99.90
8914;DHT22;4492;48.736;9.092;2023-05-16T09:03:21;10.40;99.90
8914;DHT22;4492;48.736;9.092;2023-05-16T09:05:48;10.50;99.90
8914;DHT22;4492;48.736;9.092;2023-05-16T09:08:14;10.40;99.90
8914;DHT22;4492;48.736;9.092;2023-05-16T09:10:40;10.60;99.90
8914;DHT22;4492;48.736;9.092;2023-05-16T09:13:06;10.60;99.90
8914;DHT22;4492;48.736;9.092;2023-05-16T09:15:32;10.70;99.90
8914;DHT22;4492;48.736;9.092;2023-05-16T09:18:01;10.80;99.90
8914;DHT22;4492;48.736;9.092;2023-05-16T09:20:29;10.80;99.90
8914;DHT22;4492;48.736;9.092;2023-05-16T09:22:57;10.80;99.90
8914;DHT22;4492;48.736;9.092;2023-05-16T09:25:25;10.90;99.90
8914;DHT22;4492;48.736;9.092;2023-05-16T09:27:55;11.00;99.90
8914;DHT22;4492;48.736;9.092;2023-05-16T09:30:28;11.10;99.90
8914;DHT22;4492;48.736;9.092;2023-05-16T09:32:54;11.10;99.90
8914;DHT22;4492;48.736;9.092;2023-05-16T09:35:21;11.20;99.90
8914;DHT22;4492;48.736;9.092;2023-05-16T09:37:49;11.20;99.90
8914;DHT22;4492;48.736;9.092;2023-05-16T09:40:22;11.20;99.90
8914;DHT22;4492;48.736;9.092;2023-05-16T09:43:01;11.20;99.90
8914;DHT22;4492;48.736;9.092;2023-05-16T09:45:27;11.20;99.90
8914;DHT22;4492;48.736;9.092;2023-05-16T09:47:52;11.20;99.90
8914;DHT22;4492;48.736;9.092;2023-05-16T09:50:18;11.30;99.90
8914;DHT22;4492;48.736;9.092;2023-05-16T09:52:44;11.40;99.90
8914;DHT22;4492;48.736;9.092;2023-05-16T09:55:09;11.60;99.90
8914;DHT22;4492;48.736;9.092;2023-05-16T09:57:38;11.70;99.90
8914;DHT22;4492;48.736;9.092;2023-05-16T10:00:09;11.90;99.90
8914;DHT22;4492;48.736;9.092;2023-05-16T10:02:36;12.00;99.90
8914;DHT22;4492;48.736;9.092;2023-05-16T10:05:02;12.10;99.90
8914;DHT22;4492;48.736;9.092;2023-05-16T10:07:30;12.20;99.90
8914;DHT22;4492;48.736;9.092;2023-05-16T10:09:57;12.20;99.90
8914;DHT22;4492;48.736;9.092;2023-05-16T10:12:28;12.20;99.90
8914;DHT22;4492;48.736;9.092;2023-05-16T10:14:54;12.10;99.90
8914;DHT22;4492;48.736;9.092;2023-05-16T10:17:21;12.10;99.90
8914;DHT22;4492;48.736;9.092;2023-05-16T10:19:47;12.00;99.90
8914;DHT22;4492;48.736;9.092;2023-05-16T10:22:13;12.00;99.90
8914;DHT22;4492;48.736;9.092;2023-05-16T10:24:49;11.80;99.90
8914;DHT22;4492;48.736;9.092;2023-05-16T10:27:16;11.70;99.90
8914;DHT22;4492;48.736;9.092;2023-05-16T10:29:42;11.60;99.90
8914;DHT22;4492;48.736;9.092;2023-05-16T10:32:09;11.50;99.90
8914;DHT22;4492;48.736;9.092;2023-05-16T10:34:36;11.40;99.90
8914;DHT22;4492;48.736;9.092;2023-05-16T10:37:04;11.30;99.90
8914;DHT22;4492;48.736;9.092;2023-05-16T10:39:30;11.20;99.90
8914;DHT22;4492;48.736;9.092;2023-05-16T10:41:56;11.20;99.90
8914;DHT22;4492;48.736;9.092;2023-05-16T10:44:24;11.20;99.90
8914;DHT22;4492;48.736;9.092;2023-05-16T10:46:50;11.20;99.90
8914;DHT22;4492;48.736;9.092;2023-05-16T10:49:23;11.30;99.90
8914;DHT22;4492;48.736;9.092;2023-05-16T10:52:06;11.20;99.90
8914;DHT22;4492;48.736;9.092;2023-05-16T10:54:36;11.20;99.90
8914;DHT22;4492;48.736;9.092;2023-05-16T10:57:08;11.10;99.90
8914;DHT22;4492;48.736;9.092;2023-05-16T10:59:45;10.90;99.90
8914;DHT22;4492;48.736;9.092;2023-05-16T11:02:31;10.80;99.90
8914;DHT22;4492;48.736;9.092;2023-05-16T11:05:02;10.70;99.90
8914;DHT22;4492;48.736;9.092;2023-05-16T11:07:32;10.50;99.90
8914;DHT22;4492;48.736;9.092;2023-05-16T11:10:13;10.40;99.90
8914;DHT22;4492;48.736;9.092;2023-05-16T11:12:47;10.30;99.90
8914;DHT22;4492;48.736;9.092;2023-05-16T11:15:31;10.30;99.90
8914;DHT22;4492;48.736;9.092;2023-05-16T11:18:07;10.20;99.90
8914;DHT22;4492;48.736;9.092;2023-05-16T11:20:37;10.10;99.90
8914;DHT22;4492;48.736;9.092;2023-05-16T11:25:42;10.00;99.90
8914;DHT22;4492;48.736;9.092;2023-05-16T11:28:11;10.00;99.90
8914;DHT22;4492;48.736;9.092;2023-05-16T11:30:45;9.90;99.90
8914;DHT22;4492;48.736;9.092;2023-05-16T11:33:11;9.90;99.90
8914;DHT22;4492;48.736;9.092;2023-05-16T11:35:37;9.80;99.90
8914;DHT22;4492;48.736;9.092;2023-05-16T11:38:03;9.80;99.90
8914;DHT22;4492;48.736;9.092;2023-05-16T11:40:28;9.80;99.90
8914;DHT22;4492;48.736;9.092;2023-05-16T11:42:54;9.70;99.90
8914;DHT22;4492;48.736;9.092;2023-05-16T11:45:24;9.80;99.90
8914;DHT22;4492;48.736;9.092;2023-05-16T11:47:49;9.70;99.90
8914;DHT22;4492;48.736;9.092;2023-05-16T11:50:20;9.70;99.90
8914;DHT22;4492;48.736;9.092;2023-05-16T11:52:51;9.70;99.90
8914;DHT22;4492;48.736;9.092;2023-05-16T11:55:19;9.70;99.90
8914;DHT22;4492;48.736;9.092;2023-05-16T11:57:46;9.70;99.90
8914;DHT22;4492;48.736;9.092;2023-05-16T12:00:14;9.70;99.90
8914;DHT22;4492;48.736;9.092;2023-05-16T12:02:40;9.70;99.90
8914;DHT22;4492;48.736;9.092;2023-05-16T12:05:09;9.70;99.90
8914;DHT22;4492;48.736;9.092;2023-05-16T12:07:38;9.70;99.90
8914;DHT22;4492;48.736;9.092;2023-05-16T12:10:08;9.80;99.90
8914;DHT22;4492;48.736;9.092;2023-05-16T12:12:35;9.90;99.90
8914;DHT22;4492;48.736;9.092;2023-05-16T12:15:05;9.90;99.90
8914;DHT22;4492;48.736;9.092;2023-05-16T12:17:35;10.00;99.90
8914;DHT22;4492;48.736;9.092;2023-05-16T12:20:01;10.00;99.90
8914;DHT22;4492;48.736;9.092;2023-05-16T12:22:29;10.10;99.90
8914;DHT22;4492;48.736;9.092;2023-05-16T12:24:58;10.40;99.90
8914;DHT22;4492;48.736;9.092;2023-05-16T12:27:24;10.50;99.90
8914;DHT22;4492;48.736;9.092;2023-05-16T12:29:50;10.60;99.90
8914;DHT22;4492;48.736;9.092;2023-05-16T12:32:19;10.80;99.90
8914;DHT22;4492;48.736;9.092;2023-05-16T12:34:49;10.80;99.90
8914;DHT22;4492;48.736;9.092;2023-05-16T12:37:16;10.90;99.90
8914;DHT22;4492;48.736;9.092;2023-05-16T12:39:42;11.00;99.90
8914;DHT22;4492;48.736;9.092;2023-05-16T12:42:07;11.10;99.90
8914;DHT22;4492;48.736;9.092;2023-05-16T12:44:34;11.30;99.90
8914;DHT22;4492;48.736;9.092;2023-05-16T12:47:01;11.30;99.90
8914;DHT22;4492;48.736;9.092;2023-05-16T12:49:27;11.30;99.90
8914;DHT22;4492;48.736;9.092;2023-05-16T12:51:54;11.30;99.90
8914;DHT22;4492;48.736;9.092;2023-05-16T12:54:20;11.40;99.90
8914;DHT22;4492;48.736;9.092;2023-05-16T12:56:47;11.30;99.90
8914;DHT22;4492;48.736;9.092;2023-05-16T12:59:13;11.30;99.90
8914;DHT22;4492;48.736;9.092;2023-05-16T13:01:40;11.10;99.90
8914;DHT22;4492;48.736;9.092;2023-05-16T13:04:06;10.70;99.90
8914;DHT22;4492;48.736;9.092;2023-05-16T13:06:32;10.60;99.90
8914;DHT22;4492;48.736;9.092;2023-05-16T13:08:58;10.50;99.90
8914;DHT22;4492;48.736;9.092;2023-05-16T13:11:24;10.40;99.90
8914;DHT22;4492;48.736;9.092;2023-05-16T13:13:50;10.30;99.90
8914;DHT22;4492;48.736;9.092;2023-05-16T13:16:16;10.30;99.90
8914;DHT22;4492;48.736;9.092;2023-05-16T13:18:42;10.20;99.90
8914;DHT22;4492;48.736;9.092;2023-05-16T13:21:07;10.10;99.90
8914;DHT22;4492;48.736;9.092;2023-05-16T13:23:33;10.00;99.90
8914;DHT22;4492;48.736;9.092;2023-05-16T13:25:58;10.00;99.90
8914;DHT22;4492;48.736;9.092;2023-05-16T13:28:24;9.90;99.90
8914;DHT22;4492;48.736;9.092;2023-05-16T13:30:50;9.80;99.90
8914;DHT22;4492;48.736;9.092;2023-05-16T13:33:16;9.80;99.90
8914;DHT22;4492;48.736;9.092;2023-05-16T13:35:42;9.80;99.90
8914;DHT22;4492;48.736;9.092;2023-05-16T13:38:08;9.80;99.90
8914;DHT22;4492;48.736;9.092;2023-05-16T13:40:33;9.80;99.90
8914;DHT22;4492;48.736;9.092;2023-05-16T13:43:00;9.70;99.90
8914;DHT22;4492;48.736;9.092;2023-05-16T13:45:26;9.70;99.90
8914;DHT22;4492;48.736;9.092;2023-05-16T13:47:52;9.70;99.90
8914;DHT22;4492;48.736;9.092;2023-05-16T13:50:18;9.70;99.90
8914;DHT22;4492;48.736;9.092;2023-05-16T13:52:43;9.70;99.90
8914;DHT22;4492;48.736;9.092;2023-05-16T13:55:09;9.70;99.90
8914;DHT22;4492;48.736;9.092;2023-05-16T13:57:35;9.70;99.90
8914;DHT22;4492;48.736;9.092;2023-05-16T14:00:01;9.80;99.90
8914;DHT22;4492;48.736;9.092;2023-05-16T14:02:32;9.80;99.90
8914;DHT22;4492;48.736;9.092;2023-05-16T14:04:58;9.90;99.90
8914;DHT22;4492;48.736;9.092;2023-05-16T14:07:23;10.00;99.90
8914;DHT22;4492;48.736;9.092;2023-05-16T14:09:49;10.00;99.90
8914;DHT22;4492;48.736;9.092;2023-05-16T14:12:14;10.10;99.90
8914;DHT22;4492;48.736;9.092;2023-05-16T14:14:40;10.00;99.90
8914;DHT22;4492;48.736;9.092;2023-05-16T14:17:05;10.10;99.90
8914;DHT22;4492;48.736;9.092;2023-05-16T14:19:31;10.00;99.90
8914;DHT22;4492;48.736;9.092;2023-05-16T14:21:57;10.00;99.90
8914;DHT22;4492;48.736;9.092;2023-05-16T14:24:22;10.00;99.90
8914;DHT22;4492;48.736;9.092;2023-05-16T14:26:48;10.10;99.90
8914;DHT22;4492;48.736;9.092;2023-05-16T14:29:13;10.20;99.90
8914;DHT22;4492;48.736;9.092;2023-05-16T14:31:39;10.20;99.90
8914;DHT22;4492;48.736;9.092;2023-05-16T14:34:05;10.40;99.90
8914;DHT22;4492;48.736;9.092;2023-05-16T14:36:30;10.40;99.90
8914;DHT22;4492;48.736;9.092;2023-05-16T14:38:56;10.40;99.90
8914;DHT22;4492;48.736;9.092;2023-05-16T14:41:22;10.40;99.90
8914;DHT22;4492;48.736;9.092;2023-05-16T14:43:48;10.50;99.90
8914;DHT22;4492;48.736;9.092;2023-05-16T14:46:13;10.50;99.90
8914;DHT22;4492;48.736;9.092;2023-05-16T14:48:39;10.60;99.90
8914;DHT22;4492;48.736;9.092;2023-05-16T14:51:05;10.60;99.90
8914;DHT22;4492;48.736;9.092;2023-05-16T14:53:31;10.70;99.90
8914;DHT22;4492;48.736;9.092;2023-05-16T14:55:57;10.80;99.90
8914;DHT22;4492;48.736;9.092;2023-05-16T14:58:22;10.80;99.90
8914;DHT22;4492;48.736;9.092;2023-05-16T15:00:48;10.90;99.90
8914;DHT22;4492;48.736;9.092;2023-05-16T15:03:15;10.90;99.90
8914;DHT22;4492;48.736;9.092;2023-05-16T15:05:41;10.90;99.90
8914;DHT22;4492;48.736;9.092;2023-05-16T15:08:06;10.90;99.90
8914;DHT22;4492;48.736;9.092;2023-05-16T15:10:32;10.90;99.90
8914;DHT22;4492;48.736;9.092;2023-05-16T15:12:58;10.80;99.90
8914;DHT22;4492;48.736;9.092;2023-05-16T15:15:23;10.80;99.90
8914;DHT22;4492;48.736;9.092;2023-05-16T15:17:49;10.90;99.90
8914;DHT22;4492;48.736;9.092;2023-05-16T15:20:15;11.00;99.90
8914;DHT22;4492;48.736;9.092;2023-05-16T15:22:40;11.20;99.90
8914;DHT22;4492;48.736;9.092;2023-05-16T15:25:07;11.50;99.90
8914;DHT22;4492;48.736;9.092;2023-05-16T15:27:33;11.80;99.90
8914;DHT22;4492;48.736;9.092;2023-05-16T15:29:59;12.10;99.90
8914;DHT22;4492;48.736;9.092;2023-05-16T15:32:25;12.60;99.90
8914;DHT22;4492;48.736;9.092;2023-05-16T15:34:51;12.90;99.90
8914;DHT22;4492;48.736;9.092;2023-05-16T15:37:16;13.20;99.90
8914;DHT22;4492;48.736;9.092;2023-05-16T15:39:42;13.50;99.90
8914;DHT22;4492;48.736;9.092;2023-05-16T15:42:07;13.50;99.90
8914;DHT22;4492;48.736;9.092;2023-05-16T15:44:33;13.20;99.90
8914;DHT22;4492;48.736;9.092;2023-05-16T15:46:59;12.80;99.90
8914;DHT22;4492;48.736;9.092;2023-05-16T15:49:26;12.40;99.90
8914;DHT22;4492;48.736;9.092;2023-05-16T15:51:52;12.10;99.90
8914;DHT22;4492;48.736;9.092;2023-05-16T15:54:17;11.80;99.90
8914;DHT22;4492;48.736;9.092;2023-05-16T15:56:43;11.70;99.90
8914;DHT22;4492;48.736;9.092;2023-05-16T15:59:08;11.70;99.90
8914;DHT22;4492;48.736;9.092;2023-05-16T16:01:34;11.80;99.90
8914;DHT22;4492;48.736;9.092;2023-05-16T16:03:59;11.90;99.90
8914;DHT22;4492;48.736;9.092;2023-05-16T16:06:25;12.10;99.90
8914;DHT22;4492;48.736;9.092;2023-05-16T16:08:50;12.10;99.90
8914;DHT22;4492;48.736;9.092;2023-05-16T16:11:18;12.00;99.90
8914;DHT22;4492;48.736;9.092;2023-05-16T16:13:44;11.90;99.90
8914;DHT22;4492;48.736;9.092;2023-05-16T16:16:09;11.80;99.90
8914;DHT22;4492;48.736;9.092;2023-05-16T16:18:35;11.60;99.90
8914;DHT22;4492;48.736;9.092;2023-05-16T16:21:00;11.50;99.90
8914;DHT22;4492;48.736;9.092;2023-05-16T16:23:26;11.40;99.90
8914;DHT22;4492;48.736;9.092;2023-05-16T16:25:51;11.30;99.90